createdAt,value
2022-08-31T00:01:27.859Z,100296.59
2022-08-31T00:03:54.283Z,100296.25
2022-08-31T00:06:22.031Z,100296.59
2022-08-31T00:08:49.770Z,100297.75
2022-08-31T00:11:18.809Z,100295.56
2022-08-31T00:13:46.647Z,100295.72
2022-08-31T00:16:14.418Z,100300.78
2022-08-31T00:18:42.180Z,100293.88
2022-08-31T00:21:09.805Z,100296.06
2022-08-31T00:23:37.651Z,100289.47
2022-08-31T00:26:05.576Z,100292.31
2022-08-31T00:28:33.355Z,100293.63
2022-08-31T00:31:01.011Z,100289.44
2022-08-31T00:33:28.698Z,100286.91
2022-08-31T00:35:56.838Z,100292.59
2022-08-31T00:38:24.598Z,100298.19
2022-08-31T00:40:52.359Z,100294.13
2022-08-31T00:43:20.141Z,100297.81
2022-08-31T00:45:48.171Z,100303.38
2022-08-31T00:48:15.881Z,100301.00
2022-08-31T00:50:43.704Z,100302.19
2022-08-31T00:53:11.429Z,100297.66
2022-08-31T00:55:40.926Z,100301.34
2022-08-31T00:58:08.657Z,100299.97
2022-08-31T01:00:36.437Z,100306.38
2022-08-31T01:03:04.110Z,100303.00
2022-08-31T01:05:32.181Z,100296.75
2022-08-31T01:07:59.885Z,100303.16
2022-08-31T01:10:27.686Z,100306.53
2022-08-31T01:12:55.384Z,100305.69
2022-08-31T01:15:25.103Z,100299.44
2022-08-31T01:17:52.770Z,100300.47
2022-08-31T01:20:20.527Z,100297.75
2022-08-31T01:22:48.264Z,100299.75
2022-08-31T01:25:16.239Z,100301.59
2022-08-31T01:27:43.992Z,100301.75
2022-08-31T01:30:11.666Z,100303.47
2022-08-31T01:32:39.371Z,100303.47
2022-08-31T01:35:11.456Z,100306.53
2022-08-31T01:37:39.377Z,100305.38
2022-08-31T01:40:07.618Z,100312.13
2022-08-31T01:42:35.281Z,100308.25
2022-08-31T01:45:02.992Z,100320.75
2022-08-31T01:47:30.714Z,100313.50
2022-08-31T01:49:58.367Z,100320.91
2022-08-31T01:52:27.529Z,100315.50
2022-08-31T01:54:56.575Z,100321.72
2022-08-31T01:57:33.717Z,100329.53
2022-08-31T02:00:02.193Z,100325.66
2022-08-31T02:02:30.246Z,100323.78
2022-08-31T02:04:59.188Z,100316.84
2022-08-31T02:07:27.140Z,100319.56
2022-08-31T02:09:55.437Z,100319.75
2022-08-31T02:12:23.369Z,100323.44
2022-08-31T02:14:51.060Z,100322.59
2022-08-31T02:17:18.845Z,100327.13
2022-08-31T02:19:46.650Z,100315.81
2022-08-31T02:22:14.400Z,100316.69
2022-08-31T02:24:42.363Z,100322.41
2022-08-31T02:27:10.187Z,100324.09
2022-08-31T02:29:37.878Z,100320.69
2022-08-31T02:32:05.616Z,100317.31
2022-08-31T02:34:34.242Z,100325.25
2022-08-31T02:37:02.064Z,100326.94
2022-08-31T02:39:29.678Z,100328.47
2022-08-31T02:41:57.527Z,100327.47
2022-08-31T02:44:25.436Z,100326.44
2022-08-31T02:46:53.134Z,100328.13
2022-08-31T02:49:21.800Z,100333.38
2022-08-31T02:51:49.489Z,100320.75
2022-08-31T02:54:17.628Z,100325.97
2022-08-31T02:56:45.306Z,100318.22
2022-08-31T02:59:12.935Z,100323.75
2022-08-31T03:01:42.353Z,100320.22
2022-08-31T03:04:10.318Z,100324.63
2022-08-31T03:06:37.951Z,100317.53
2022-08-31T03:09:05.592Z,100311.28
2022-08-31T03:11:33.339Z,100317.34
2022-08-31T03:14:01.276Z,100316.53
2022-08-31T03:16:28.973Z,100316.53
2022-08-31T03:18:56.694Z,100311.97
2022-08-31T03:21:24.313Z,100313.81
2022-08-31T03:23:52.255Z,100312.81
2022-08-31T03:26:19.971Z,100312.97
2022-08-31T03:28:47.643Z,100308.94
2022-08-31T03:31:15.290Z,100320.19
2022-08-31T03:33:43.181Z,100308.00
2022-08-31T03:36:11.234Z,100308.47
2022-08-31T03:38:38.816Z,100304.59
2022-08-31T03:41:06.538Z,100311.28
2022-08-31T03:43:34.396Z,100313.63
2022-08-31T03:46:02.070Z,100315.78
2022-08-31T03:48:33.728Z,100316.78
2022-08-31T03:51:01.486Z,100315.97
2022-08-31T03:53:29.088Z,100309.56
2022-08-31T03:56:02.056Z,100314.81
2022-08-31T03:58:30.018Z,100310.41
2022-08-31T04:00:58.066Z,100316.97
2022-08-31T04:03:25.692Z,100318.00
2022-08-31T04:05:54.654Z,100323.53
2022-08-31T04:08:22.271Z,100324.53
2022-08-31T04:10:50.085Z,100314.59
2022-08-31T04:13:17.808Z,100316.28
2022-08-31T04:15:46.804Z,100317.81
2022-08-31T04:18:14.502Z,100311.41
2022-08-31T04:20:42.321Z,100313.09
2022-08-31T04:23:10.162Z,100308.56
2022-08-31T04:25:39.230Z,100311.25
2022-08-31T04:28:09.199Z,100316.66
2022-08-31T04:30:37.896Z,100318.47
2022-08-31T04:33:05.692Z,100321.88
2022-08-31T04:35:33.410Z,100328.81
2022-08-31T04:38:00.998Z,100322.72
2022-08-31T04:40:29.668Z,100322.72
2022-08-31T04:42:57.326Z,100323.72
2022-08-31T04:45:25.342Z,100322.03
2022-08-31T04:47:53.037Z,100320.50
2022-08-31T04:50:20.789Z,100332.16
2022-08-31T04:53:03.510Z,100337.34
2022-08-31T04:55:31.771Z,100338.88
2022-08-31T04:57:59.420Z,100338.06
2022-08-31T05:00:27.927Z,100330.66
2022-08-31T05:02:55.611Z,100340.56
2022-08-31T05:05:23.459Z,100336.19
2022-08-31T05:07:51.301Z,100333.50
2022-08-31T05:10:18.930Z,100342.59
2022-08-31T05:12:46.717Z,100349.00
2022-08-31T05:15:14.628Z,100344.63
2022-08-31T05:17:42.293Z,100344.63
2022-08-31T05:20:10.150Z,100351.00
2022-08-31T05:22:38.098Z,100343.06
2022-08-31T05:25:07.237Z,100342.25
2022-08-31T05:27:35.228Z,100351.31
2022-08-31T05:30:02.918Z,100344.09
2022-08-31T05:32:30.644Z,100350.63
2022-08-31T05:34:58.318Z,100340.19
2022-08-31T05:37:27.703Z,100346.59
2022-08-31T05:39:55.481Z,100345.72
2022-08-31T05:42:23.155Z,100349.28
2022-08-31T05:44:51.068Z,100347.56
2022-08-31T05:47:18.848Z,100345.88
2022-08-31T05:49:47.129Z,100347.06
2022-08-31T05:52:16.189Z,100344.50
2022-08-31T05:54:44.541Z,100342.84
2022-08-31T05:57:12.234Z,100338.25
2022-08-31T05:59:39.950Z,100335.44
2022-08-31T06:02:08.891Z,100341.50
2022-08-31T06:04:37.679Z,100343.03
2022-08-31T06:07:05.608Z,100340.19
2022-08-31T06:09:35.328Z,100352.81
2022-08-31T06:12:04.273Z,100348.41
2022-08-31T06:14:32.996Z,100348.41
2022-08-31T06:17:00.706Z,100358.03
2022-08-31T06:19:28.383Z,100356.03
2022-08-31T06:21:57.405Z,100354.88
2022-08-31T06:24:25.029Z,100357.41
2022-08-31T06:26:58.798Z,100352.03
2022-08-31T06:29:27.054Z,100352.69
2022-08-31T06:31:55.797Z,100355.25
2022-08-31T06:34:23.756Z,100354.06
2022-08-31T06:36:51.370Z,100344.66
2022-08-31T06:39:19.662Z,100356.81
2022-08-31T06:41:52.782Z,100357.50
2022-08-31T06:44:21.244Z,100363.41
2022-08-31T06:46:49.003Z,100363.25
2022-08-31T06:49:16.795Z,100366.66
2022-08-31T06:51:44.387Z,100364.47
2022-08-31T06:54:28.390Z,100365.56
2022-08-31T06:56:56.969Z,100371.19
2022-08-31T06:59:28.527Z,100374.16
2022-08-31T07:01:56.798Z,100371.34
2022-08-31T07:04:24.852Z,100373.75
2022-08-31T07:06:52.480Z,100383.94
2022-08-31T07:09:20.088Z,100388.34
2022-08-31T07:11:47.771Z,100390.53
2022-08-31T07:14:15.679Z,100393.59
2022-08-31T07:16:43.473Z,100397.13
2022-08-31T07:19:11.288Z,100391.03
2022-08-31T07:21:39.003Z,100391.03
2022-08-31T07:24:07.312Z,100400.84
2022-08-31T07:26:36.556Z,100400.16
2022-08-31T07:29:07.066Z,100398.13
2022-08-31T07:31:42.830Z,100404.72
2022-08-31T07:34:11.231Z,100401.03
2022-08-31T07:36:59.342Z,100414.34
2022-08-31T07:39:44.583Z,100403.72
2022-08-31T07:42:12.227Z,100405.06
2022-08-31T07:44:41.455Z,100406.44
2022-08-31T07:47:12.559Z,100401.53
2022-08-31T07:49:44.673Z,100405.75
2022-08-31T07:52:12.822Z,100404.56
2022-08-31T07:54:42.508Z,100408.63
2022-08-31T07:57:10.210Z,100407.59
2022-08-31T07:59:39.973Z,100410.47
2022-08-31T08:02:07.798Z,100408.28
2022-08-31T08:04:43.256Z,100408.78
2022-08-31T08:07:11.331Z,100411.66
2022-08-31T08:09:39.291Z,100418.41
2022-08-31T08:12:07.536Z,100417.88
2022-08-31T08:14:35.564Z,100418.72
2022-08-31T08:17:03.171Z,100421.56
2022-08-31T08:19:30.945Z,100423.94
2022-08-31T08:21:59.999Z,100422.25
2022-08-31T08:24:29.549Z,100426.78
2022-08-31T08:26:57.261Z,100422.34
2022-08-31T08:29:24.976Z,100420.47
2022-08-31T08:31:56.105Z,100425.00
2022-08-31T08:34:31.561Z,100425.34
2022-08-31T08:36:59.970Z,100420.75
2022-08-31T08:39:27.668Z,100421.53
2022-08-31T08:41:55.367Z,100420.66
2022-08-31T08:44:23.049Z,100417.06
2022-08-31T08:46:50.867Z,100415.31
2022-08-31T08:49:19.068Z,100417.31
2022-08-31T08:51:46.722Z,100421.34
2022-08-31T08:54:14.678Z,100423.72
2022-08-31T08:56:47.285Z,100424.19
2022-08-31T08:59:19.067Z,100424.97
2022-08-31T09:01:48.026Z,100416.09
2022-08-31T09:04:17.293Z,100424.94
2022-08-31T09:06:45.980Z,100424.31
2022-08-31T09:09:18.347Z,100415.22
2022-08-31T09:11:46.882Z,100419.06
2022-08-31T09:14:17.762Z,100413.00
2022-08-31T09:16:48.197Z,100416.50
2022-08-31T09:19:17.239Z,100410.88
2022-08-31T09:21:45.102Z,100421.44
2022-08-31T09:24:13.656Z,100415.81
2022-08-31T09:26:41.447Z,100412.63
2022-08-31T09:29:14.220Z,100412.38
2022-08-31T09:31:42.414Z,100407.56
2022-08-31T09:34:14.504Z,100406.38
2022-08-31T09:36:42.219Z,100405.22
2022-08-31T09:39:09.904Z,100403.41
2022-08-31T09:41:37.714Z,100407.88
2022-08-31T09:44:05.333Z,100399.81
2022-08-31T09:46:33.007Z,100401.97
2022-08-31T09:49:03.284Z,100399.19
2022-08-31T09:51:30.980Z,100390.88
2022-08-31T09:54:16.566Z,100387.28
2022-08-31T09:56:48.459Z,100392.38
2022-08-31T09:59:16.170Z,100391.13
2022-08-31T10:01:45.277Z,100383.56
2022-08-31T10:04:14.900Z,100385.09
2022-08-31T10:06:45.704Z,100386.66
2022-08-31T10:09:15.172Z,100376.69
2022-08-31T10:11:42.811Z,100387.06
2022-08-31T10:14:16.249Z,100380.44
2022-08-31T10:16:44.016Z,100373.13
2022-08-31T10:19:12.086Z,100387.31
2022-08-31T10:21:39.885Z,100374.69
2022-08-31T10:24:10.444Z,100382.00
2022-08-31T10:26:38.086Z,100376.84
2022-08-31T10:29:06.459Z,100373.34
2022-08-31T10:31:37.066Z,100379.38
2022-08-31T10:34:23.524Z,100375.44
2022-08-31T10:36:51.267Z,100380.69
2022-08-31T10:39:18.928Z,100379.78
2022-08-31T10:41:49.704Z,100376.78
2022-08-31T10:44:24.356Z,100387.94
2022-08-31T10:46:54.485Z,100386.47
2022-08-31T10:49:22.185Z,100383.91
2022-08-31T10:51:51.131Z,100381.16
2022-08-31T10:54:24.890Z,100380.84
2022-08-31T10:56:59.346Z,100385.91
2022-08-31T10:59:28.541Z,100381.19
2022-08-31T11:01:56.518Z,100381.91
2022-08-31T11:04:26.097Z,100383.25
2022-08-31T11:06:55.135Z,100383.13
2022-08-31T11:09:22.811Z,100388.94
2022-08-31T11:11:52.073Z,100383.38
2022-08-31T11:14:19.672Z,100389.38
2022-08-31T11:16:47.353Z,100389.41
2022-08-31T11:19:16.956Z,100372.53
2022-08-31T11:21:45.416Z,100378.91
2022-08-31T11:24:13.137Z,100376.75
2022-08-31T11:26:42.205Z,100382.09
2022-08-31T11:29:13.203Z,100370.13
2022-08-31T11:31:41.239Z,100380.84
2022-08-31T11:34:17.253Z,100374.34
2022-08-31T11:36:45.212Z,100382.69
2022-08-31T11:39:12.868Z,100379.69
2022-08-31T11:41:46.730Z,100379.19
2022-08-31T11:44:17.379Z,100378.53
2022-08-31T11:46:45.825Z,100372.78
2022-08-31T11:49:15.473Z,100378.91
2022-08-31T11:51:43.267Z,100378.19
2022-08-31T11:54:10.933Z,100373.63
2022-08-31T11:56:38.742Z,100376.38
2022-08-31T11:59:06.468Z,100368.78
2022-08-31T12:01:35.922Z,100378.66
2022-08-31T12:04:04.656Z,100372.84
2022-08-31T12:06:37.348Z,100376.84
2022-08-31T12:09:05.000Z,100366.59
2022-08-31T12:11:33.571Z,100369.00
2022-08-31T12:14:01.421Z,100370.75
2022-08-31T12:16:30.317Z,100370.84
2022-08-31T12:18:58.117Z,100374.44
2022-08-31T12:21:43.506Z,100369.25
2022-08-31T12:24:15.341Z,100362.25
2022-08-31T12:26:46.356Z,100353.97
2022-08-31T12:29:14.102Z,100366.16
2022-08-31T12:31:41.810Z,100352.75
2022-08-31T12:34:09.947Z,100353.31
2022-08-31T12:36:37.662Z,100343.56
2022-08-31T12:39:06.420Z,100353.19
2022-08-31T12:41:34.029Z,100355.50
2022-08-31T12:44:03.916Z,100352.06
2022-08-31T12:46:32.074Z,100341.09
2022-08-31T12:48:59.792Z,100348.28
2022-08-31T12:51:28.692Z,100353.47
2022-08-31T12:53:56.521Z,100346.63
2022-08-31T12:56:24.123Z,100346.91
2022-08-31T12:58:51.816Z,100341.69
2022-08-31T13:01:20.348Z,100339.66
2022-08-31T13:03:53.948Z,100342.50
2022-08-31T13:06:22.087Z,100339.75
2022-08-31T13:08:50.115Z,100336.16
2022-08-31T13:11:22.784Z,100342.78
2022-08-31T13:13:50.977Z,100338.06
2022-08-31T13:16:18.683Z,100332.84
2022-08-31T13:18:46.401Z,100339.22
2022-08-31T13:21:14.127Z,100329.34
2022-08-31T13:23:41.866Z,100326.59
2022-08-31T13:26:20.786Z,100329.25
2022-08-31T13:28:50.353Z,100320.69
2022-08-31T13:31:19.727Z,100320.38
2022-08-31T13:33:48.490Z,100314.94
2022-08-31T13:36:16.091Z,100310.53
2022-08-31T13:38:43.805Z,100304.16
2022-08-31T13:41:12.219Z,100298.75
2022-08-31T13:43:39.923Z,100299.38
2022-08-31T13:46:07.629Z,100306.69
2022-08-31T13:48:35.405Z,100295.69
2022-08-31T13:51:03.413Z,100296.84
2022-08-31T13:53:35.399Z,100297.41
2022-08-31T13:56:03.377Z,100299.16
2022-08-31T13:58:31.171Z,100298.75
2022-08-31T14:00:59.081Z,100296.34
2022-08-31T14:03:28.912Z,100293.69
2022-08-31T14:05:59.002Z,100285.88
2022-08-31T14:08:26.793Z,100288.38
2022-08-31T14:10:56.469Z,100279.84
2022-08-31T14:13:28.028Z,100282.44
2022-08-31T14:15:56.738Z,100283.13
2022-08-31T14:18:26.123Z,100280.81
2022-08-31T14:21:19.438Z,100277.44
2022-08-31T14:23:43.222Z,100286.41
2022-08-31T14:26:12.542Z,100285.75
2022-08-31T14:28:44.639Z,100279.81
2022-08-31T14:31:15.632Z,100279.53
2022-08-31T14:33:43.626Z,100270.66
2022-08-31T14:36:15.167Z,100273.34
2022-08-31T14:38:42.902Z,100273.69
2022-08-31T14:41:10.807Z,100277.00
2022-08-31T14:43:40.426Z,100277.75
2022-08-31T14:46:08.166Z,100279.09
2022-08-31T14:48:36.242Z,100269.84
2022-08-31T14:51:06.707Z,100273.63
2022-08-31T14:53:37.219Z,100279.69
2022-08-31T14:56:05.188Z,100277.41
2022-08-31T14:58:41.403Z,100274.97
2022-08-31T15:01:11.090Z,100273.84
2022-08-31T15:03:40.395Z,100262.28
2022-08-31T15:06:08.947Z,100260.38
2022-08-31T15:08:38.565Z,100258.56
2022-08-31T15:11:06.531Z,100253.63
2022-08-31T15:13:38.710Z,100259.38
2022-08-31T15:16:06.429Z,100255.78
2022-08-31T15:18:34.184Z,100256.75
2022-08-31T15:21:02.267Z,100254.66
2022-08-31T15:23:30.302Z,100260.84
2022-08-31T15:25:58.286Z,100249.78
2022-08-31T15:28:28.646Z,100250.66
2022-08-31T15:30:56.386Z,100243.28
2022-08-31T15:33:24.064Z,100245.41
2022-08-31T15:35:52.108Z,100240.94
2022-08-31T15:38:20.025Z,100241.25
2022-08-31T15:40:47.996Z,100236.50
2022-08-31T15:43:15.999Z,100237.66
2022-08-31T15:45:44.773Z,100243.81
2022-08-31T15:48:29.983Z,100236.81
2022-08-31T15:53:56.358Z,100240.53
2022-08-31T15:56:33.441Z,100238.63
2022-08-31T15:59:01.932Z,100246.53
2022-08-31T16:01:29.626Z,100249.31
2022-08-31T16:03:57.712Z,100246.59
2022-08-31T16:06:28.107Z,100232.03
2022-08-31T16:08:55.810Z,100231.63
2022-08-31T16:11:23.621Z,100239.63
2022-08-31T16:13:54.501Z,100234.63
2022-08-31T16:16:22.464Z,100237.88
2022-08-31T16:18:51.865Z,100236.72
2022-08-31T16:21:22.204Z,100243.47
2022-08-31T16:23:50.230Z,100244.28
2022-08-31T16:26:21.521Z,100244.44
2022-08-31T16:28:49.534Z,100241.50
2022-08-31T16:31:17.281Z,100240.03
2022-08-31T16:33:45.292Z,100239.66
2022-08-31T16:36:13.020Z,100241.63
2022-08-31T16:38:40.747Z,100239.56
2022-08-31T16:41:10.090Z,100240.00
2022-08-31T16:43:38.202Z,100247.97
2022-08-31T16:46:24.229Z,100245.38
2022-08-31T16:49:11.252Z,100255.25
2022-08-31T16:51:39.012Z,100248.72
2022-08-31T16:54:07.504Z,100255.41
2022-08-31T16:56:35.249Z,100254.97
2022-08-31T16:59:02.904Z,100255.13
2022-08-31T17:01:31.011Z,100256.16
2022-08-31T17:03:58.769Z,100257.13
2022-08-31T17:06:27.603Z,100262.75
2022-08-31T17:08:55.310Z,100257.47
2022-08-31T17:11:23.875Z,100261.41
2022-08-31T17:13:51.861Z,100261.56
2022-08-31T17:16:22.607Z,100264.28
2022-08-31T17:18:50.697Z,100272.78
2022-08-31T17:21:18.725Z,100265.41
2022-08-31T17:23:48.277Z,100275.22
2022-08-31T17:26:16.175Z,100274.94
2022-08-31T17:28:43.953Z,100278.66
2022-08-31T17:31:11.879Z,100272.31
2022-08-31T17:33:39.938Z,100274.16
2022-08-31T17:36:08.703Z,100275.97
2022-08-31T17:38:36.877Z,100276.75
2022-08-31T17:41:04.797Z,100273.34
2022-08-31T17:43:39.401Z,100277.88
2022-08-31T17:46:07.287Z,100277.00
2022-08-31T17:48:36.393Z,100282.34
2022-08-31T17:51:04.628Z,100279.53
2022-08-31T17:53:34.318Z,100277.78
2022-08-31T17:56:02.319Z,100281.66
2022-08-31T17:58:30.069Z,100285.97
2022-08-31T18:00:58.141Z,100285.25
2022-08-31T18:03:27.272Z,100287.03
2022-08-31T18:05:55.093Z,100295.97
2022-08-31T18:08:24.629Z,100287.09
2022-08-31T18:10:53.506Z,100287.84
2022-08-31T18:13:24.253Z,100292.34
2022-08-31T18:15:52.239Z,100292.25
2022-08-31T18:18:20.093Z,100293.00
2022-08-31T18:20:47.949Z,100299.38
2022-08-31T18:23:16.632Z,100307.41
2022-08-31T18:25:45.800Z,100303.56
2022-08-31T18:28:13.687Z,100308.91
2022-08-31T18:30:41.567Z,100309.66
2022-08-31T18:33:14.765Z,100310.41
2022-08-31T18:35:44.197Z,100319.25
2022-08-31T18:38:13.405Z,100319.00
2022-08-31T18:40:58.697Z,100327.69
2022-08-31T18:43:44.505Z,100324.69
2022-08-31T18:46:12.356Z,100329.63
2022-08-31T18:48:40.792Z,100333.06
2022-08-31T18:51:08.442Z,100333.59
2022-08-31T18:53:36.281Z,100336.00
2022-08-31T18:56:05.509Z,100341.97
2022-08-31T18:58:33.257Z,100345.06
2022-08-31T19:01:01.301Z,100337.47
2022-08-31T19:03:29.222Z,100345.94
2022-08-31T19:05:59.428Z,100344.47
2022-08-31T19:08:27.191Z,100341.91
2022-08-31T19:10:56.506Z,100353.59
2022-08-31T19:13:26.437Z,100351.91
2022-08-31T19:15:56.895Z,100348.53
2022-08-31T19:18:28.410Z,100342.25
2022-08-31T19:20:56.095Z,100352.28
2022-08-31T19:23:23.942Z,100355.66
2022-08-31T19:25:53.460Z,100360.03
2022-08-31T19:28:21.274Z,100359.88
2022-08-31T19:30:49.018Z,100356.31
2022-08-31T19:33:17.213Z,100360.72
2022-08-31T19:35:47.338Z,100355.31
2022-08-31T19:38:15.141Z,100360.72
2022-08-31T19:40:43.102Z,100363.44
2022-08-31T19:46:09.552Z,100360.91
2022-08-31T19:48:44.002Z,100360.91
2022-08-31T19:51:11.934Z,100353.09
2022-08-31T19:53:40.435Z,100360.41
2022-08-31T19:56:17.976Z,100359.75
2022-08-31T19:58:47.243Z,100368.88
2022-08-31T20:01:15.124Z,100369.09
2022-08-31T20:03:42.939Z,100368.44
2022-08-31T20:06:12.855Z,100362.31
2022-08-31T20:08:40.808Z,100362.69
2022-08-31T20:11:08.645Z,100368.66
2022-08-31T20:13:36.326Z,100363.94
2022-08-31T20:16:04.824Z,100368.88
2022-08-31T20:18:32.551Z,100368.75
2022-08-31T20:21:01.201Z,100362.16
2022-08-31T20:23:30.389Z,100375.59
2022-08-31T20:25:58.462Z,100366.28
2022-08-31T20:28:27.470Z,100374.56
2022-08-31T20:30:59.297Z,100371.03
2022-08-31T20:33:27.162Z,100376.25
2022-08-31T20:35:54.921Z,100370.84
2022-08-31T20:38:22.630Z,100369.81
2022-08-31T20:40:52.430Z,100373.41
2022-08-31T20:43:21.223Z,100364.25
2022-08-31T20:45:49.253Z,100368.00
2022-08-31T20:48:34.533Z,100368.13
2022-08-31T20:51:02.185Z,100374.06
2022-08-31T20:53:43.015Z,100376.66
2022-08-31T20:56:11.366Z,100369.59
2022-08-31T20:58:44.871Z,100374.84
2022-08-31T21:01:14.301Z,100374.72
2022-08-31T21:03:42.167Z,100372.88
2022-08-31T21:06:11.619Z,100382.03
2022-08-31T21:08:39.730Z,100379.34
2022-08-31T21:11:08.235Z,100382.94
2022-08-31T21:13:36.041Z,100385.47
2022-08-31T21:16:03.738Z,100370.78
2022-08-31T21:18:33.252Z,100375.69
2022-08-31T21:21:01.420Z,100368.72
2022-08-31T21:23:31.726Z,100368.91
2022-08-31T21:26:00.224Z,100374.47
2022-08-31T21:28:29.643Z,100371.94
2022-08-31T21:30:57.343Z,100372.09
2022-08-31T21:33:25.817Z,100375.81
2022-08-31T21:35:53.465Z,100366.03
2022-08-31T21:38:21.234Z,100371.59
2022-08-31T21:40:49.185Z,100365.38
2022-08-31T21:43:17.296Z,100369.91
2022-08-31T21:45:45.013Z,100367.41
2022-08-31T21:48:12.639Z,100365.69
2022-08-31T21:50:40.356Z,100372.97
2022-08-31T21:53:08.066Z,100369.59
2022-08-31T21:55:36.005Z,100371.59
2022-08-31T21:58:03.654Z,100360.28
2022-08-31T22:00:32.570Z,100368.75
2022-08-31T22:03:00.574Z,100367.06
2022-08-31T22:05:31.943Z,100373.50
2022-08-31T22:07:59.564Z,100366.22
2022-08-31T22:10:29.214Z,100379.72
2022-08-31T22:12:57.057Z,100372.81
2022-08-31T22:15:27.314Z,100375.53
2022-08-31T22:18:35.617Z,100382.94
2022-08-31T22:20:42.601Z,100379.72
2022-08-31T22:23:10.638Z,100377.22
2022-08-31T22:25:38.546Z,100374.84
2022-08-31T22:28:07.554Z,100367.06
2022-08-31T22:30:36.037Z,100369.59
2022-08-31T22:33:03.759Z,100370.78
2022-08-31T22:35:32.659Z,100370.94
2022-08-31T22:38:00.280Z,100371.97
2022-08-31T22:40:30.260Z,100375.44
2022-08-31T22:42:58.782Z,100378.81
2022-08-31T22:45:27.292Z,100375.06
2022-08-31T22:47:54.935Z,100375.06
2022-08-31T22:50:23.015Z,100379.91
2022-08-31T22:52:50.592Z,100372.94
2022-08-31T22:55:18.489Z,100373.94
2022-08-31T22:57:46.172Z,100367.69
2022-08-31T23:00:14.593Z,100365.63
2022-08-31T23:02:45.022Z,100366.41
2022-08-31T23:05:14.245Z,100362.69
2022-08-31T23:07:42.989Z,100358.09
2022-08-31T23:10:10.656Z,100363.94
2022-08-31T23:12:38.226Z,100364.59
2022-08-31T23:15:06.211Z,100362.22
2022-08-31T23:17:34.920Z,100358.47
2022-08-31T23:20:05.280Z,100362.81
2022-08-31T23:22:32.838Z,100361.75
2022-08-31T23:25:00.868Z,100356.97
2022-08-31T23:27:28.624Z,100358.28
2022-08-31T23:29:56.707Z,100361.31
2022-08-31T23:32:27.913Z,100352.53
2022-08-31T23:34:58.286Z,100358.22
2022-08-31T23:37:26.059Z,100349.63
2022-08-31T23:39:53.963Z,100350.09
2022-08-31T23:42:21.806Z,100353.41
2022-08-31T23:44:49.798Z,100346.13
2022-08-31T23:47:17.389Z,100355.81
2022-08-31T23:49:45.707Z,100349.22
2022-08-31T23:52:18.858Z,100353.22
2022-08-31T23:54:48.479Z,100348.41
2022-08-31T23:57:31.630Z,100345.66
